createdAt,value
2019-04-01T00:01:30.022Z,5.40
2019-04-01T00:04:00.335Z,3.73
2019-04-01T00:06:30.533Z,4.83
2019-04-01T00:09:00.771Z,4.23
2019-04-01T00:11:32.819Z,3.90
2019-04-01T00:14:03.034Z,4.90
2019-04-01T00:16:33.558Z,4.03
2019-04-01T00:19:03.826Z,4.33
2019-04-01T00:21:35.083Z,4.30
2019-04-01T00:24:05.716Z,4.17
2019-04-01T00:26:37.058Z,4.13
2019-04-01T00:29:07.252Z,4.00
2019-04-01T00:31:37.445Z,4.83
2019-04-01T00:34:07.652Z,4.47
2019-04-01T00:36:38.942Z,3.90
2019-04-01T00:39:09.147Z,4.70
2019-04-01T00:42:04.461Z,5.63
2019-04-01T00:44:34.982Z,3.40
2019-04-01T00:47:05.173Z,3.87
2019-04-01T00:49:35.346Z,4.60
2019-04-01T00:52:05.535Z,4.20
2019-04-01T00:54:35.735Z,4.10
2019-04-01T00:57:06.000Z,4.10
2019-04-01T00:59:36.191Z,3.93
2019-04-01T01:02:06.368Z,3.87
2019-04-01T01:04:36.762Z,4.33
2019-04-01T01:07:08.161Z,3.60
2019-04-01T01:09:38.362Z,4.87
2019-04-01T01:12:08.558Z,4.90
2019-04-01T01:14:38.742Z,4.63
2019-04-01T01:17:08.929Z,3.97
2019-04-01T01:19:39.191Z,3.70
2019-04-01T01:22:09.373Z,3.93
2019-04-01T01:24:39.583Z,4.57
2019-04-01T01:27:09.734Z,3.90
2019-04-01T01:29:39.904Z,4.43
2019-04-01T01:32:10.097Z,4.07
2019-04-01T01:34:40.343Z,4.13
2019-04-01T01:37:10.634Z,3.93
2019-04-01T01:39:40.986Z,4.50
2019-04-01T01:42:11.154Z,3.97
2019-04-01T01:44:41.426Z,4.77
2019-04-01T01:47:11.590Z,3.60
2019-04-01T01:49:41.818Z,4.40
2019-04-01T01:52:13.095Z,4.17
2019-04-01T01:54:43.567Z,4.00
2019-04-01T01:57:13.776Z,3.97
2019-04-01T01:59:44.047Z,3.50
2019-04-01T02:02:14.633Z,3.83
2019-04-01T02:04:44.822Z,3.93
2019-04-01T02:07:14.985Z,4.47
2019-04-01T02:09:45.252Z,4.10
2019-04-01T02:12:15.444Z,3.33
2019-04-01T02:14:45.632Z,3.87
2019-04-01T02:17:15.800Z,4.27
2019-04-01T02:19:46.048Z,3.20
2019-04-01T02:22:16.199Z,3.17
2019-04-01T02:24:46.428Z,3.90
2019-04-01T02:27:16.594Z,3.77
2019-04-01T02:29:46.898Z,3.10
2019-04-01T02:32:17.134Z,3.20
2019-04-01T02:34:47.298Z,3.13
2019-04-01T02:37:17.518Z,4.37
2019-04-01T02:39:47.697Z,3.50
2019-04-01T02:42:17.908Z,3.40
2019-04-01T02:44:48.597Z,3.60
2019-04-01T02:47:18.872Z,4.00
2019-04-01T02:49:49.066Z,3.77
2019-04-01T02:52:19.239Z,3.40
2019-04-01T02:54:49.498Z,3.97
2019-04-01T02:57:19.745Z,3.53
2019-04-01T02:59:49.976Z,3.43
2019-04-01T03:02:20.359Z,4.10
2019-04-01T03:04:50.980Z,4.47
2019-04-01T03:07:21.216Z,4.37
2019-04-01T03:09:51.401Z,3.90
2019-04-01T03:12:21.559Z,3.73
2019-04-01T03:14:51.827Z,3.33
2019-04-01T03:17:22.030Z,3.10
2019-04-01T03:19:52.258Z,3.83
2019-04-01T03:22:22.434Z,3.97
2019-04-01T03:24:52.859Z,3.30
2019-04-01T03:27:23.042Z,3.90
2019-04-01T03:29:53.203Z,3.87
2019-04-01T03:32:23.406Z,3.73
2019-04-01T03:34:53.653Z,3.00
2019-04-01T03:37:23.878Z,4.33
2019-04-01T03:39:54.079Z,3.70
2019-04-01T03:42:24.236Z,4.27
2019-04-01T03:44:55.560Z,3.80
2019-04-01T03:47:25.849Z,4.27
2019-04-01T03:49:56.072Z,4.13
2019-04-01T03:52:26.264Z,4.23
2019-04-01T03:54:56.515Z,3.80
2019-04-01T03:57:26.857Z,3.93
2019-04-01T03:59:57.032Z,4.17
2019-04-01T04:02:27.217Z,3.50
2019-04-01T04:04:57.445Z,4.07
2019-04-01T04:07:27.704Z,3.47
2019-04-01T04:09:58.059Z,4.33
2019-04-01T04:12:28.248Z,3.53
2019-04-01T04:14:58.507Z,4.20
2019-04-01T04:17:29.781Z,3.87
2019-04-01T04:20:00.190Z,4.13
2019-04-01T04:22:30.675Z,3.77
2019-04-01T04:25:01.204Z,4.47
2019-04-01T04:27:31.459Z,4.07
2019-04-01T04:30:01.679Z,4.07
2019-04-01T04:32:31.983Z,5.37
2019-04-01T04:35:02.302Z,4.53
2019-04-01T04:37:32.521Z,4.47
2019-04-01T04:40:02.779Z,4.57
2019-04-01T04:42:34.111Z,4.10
2019-04-01T04:45:05.214Z,4.80
2019-04-01T04:47:35.562Z,4.40
2019-04-01T04:50:05.872Z,5.53
2019-04-01T04:52:36.065Z,4.70
2019-04-01T04:55:07.547Z,5.10
2019-04-01T04:57:37.745Z,4.93
2019-04-01T05:00:08.598Z,4.27
2019-04-01T05:02:38.865Z,4.37
2019-04-01T05:05:09.045Z,4.77
2019-04-01T05:07:40.663Z,3.97
2019-04-01T05:10:12.224Z,4.97
2019-04-01T05:12:43.468Z,5.13
2019-04-01T05:15:13.703Z,4.53
2019-04-01T05:17:44.016Z,5.97
2019-04-01T05:20:19.693Z,10.37
2019-04-01T05:22:50.443Z,4.87
2019-04-01T05:25:20.762Z,5.00
2019-04-01T05:27:52.309Z,5.97
2019-04-01T05:30:22.627Z,5.13
2019-04-01T05:32:55.532Z,3.97
2019-04-01T05:35:27.064Z,5.60
2019-04-01T05:37:57.289Z,4.87
2019-04-01T05:40:30.308Z,5.30
2019-04-01T05:43:00.873Z,4.57
2019-04-01T05:45:33.209Z,4.87
2019-04-01T05:48:05.802Z,4.50
2019-04-01T05:50:37.964Z,5.47
2019-04-01T05:53:10.086Z,4.90
2019-04-01T05:55:41.789Z,5.00
2019-04-01T05:58:12.076Z,5.73
2019-04-01T06:00:46.486Z,5.73
2019-04-01T06:03:16.705Z,4.60
2019-04-01T06:05:47.081Z,5.73
2019-04-01T06:08:18.413Z,4.97
2019-04-01T06:10:48.791Z,5.73
2019-04-01T06:13:19.015Z,5.10
2019-04-01T06:15:49.268Z,5.90
2019-04-01T06:18:19.518Z,6.60
2019-04-01T06:20:49.795Z,5.53
2019-04-01T06:23:20.390Z,5.23
2019-04-01T06:25:50.833Z,5.27
2019-04-01T06:28:20.979Z,4.80
2019-04-01T06:30:51.244Z,5.00
2019-04-01T06:33:21.591Z,4.40
2019-04-01T06:35:51.894Z,6.00
2019-04-01T06:38:22.418Z,5.87
2019-04-01T06:40:52.879Z,5.77
2019-04-01T06:43:23.122Z,4.80
2019-04-01T06:45:55.261Z,5.10
2019-04-01T06:48:32.442Z,4.87
2019-04-01T06:51:09.957Z,5.30
2019-04-01T06:53:41.147Z,4.73
2019-04-01T06:56:12.677Z,5.07
2019-04-01T06:58:44.205Z,5.13
2019-04-01T07:01:18.254Z,4.80
2019-04-01T07:03:48.778Z,4.57
2019-04-01T07:06:19.542Z,5.50
2019-04-01T07:08:49.943Z,4.70
2019-04-01T07:11:20.743Z,4.40
2019-04-01T07:13:51.149Z,4.93
2019-04-01T07:16:21.444Z,4.60
2019-04-01T07:18:53.083Z,5.10
2019-04-01T07:21:24.279Z,4.50
2019-04-01T07:23:55.425Z,5.33
2019-04-01T07:26:25.844Z,5.27
2019-04-01T07:28:56.537Z,4.40
2019-04-01T07:31:29.917Z,4.87
2019-04-01T07:34:00.332Z,4.27
2019-04-01T07:36:30.781Z,4.93
2019-04-01T07:39:00.933Z,4.77
2019-04-01T07:41:32.972Z,4.53
2019-04-01T07:44:04.169Z,4.63
2019-04-01T07:46:34.929Z,4.83
2019-04-01T07:49:05.250Z,5.17
2019-04-01T07:51:38.422Z,4.50
2019-04-01T07:54:07.622Z,4.23
2019-04-01T07:56:37.971Z,4.70
2019-04-01T07:59:10.380Z,4.87
2019-04-01T08:01:40.760Z,5.10
2019-04-01T08:04:11.256Z,4.83
2019-04-01T08:06:41.585Z,4.33
2019-04-01T08:09:12.031Z,4.30
2019-04-01T08:11:42.806Z,4.50
2019-04-01T08:14:13.382Z,4.87
2019-04-01T08:16:43.730Z,4.00
2019-04-01T08:19:14.072Z,5.23
2019-04-01T08:21:44.423Z,4.20
2019-04-01T08:24:14.686Z,4.30
2019-04-01T08:26:45.363Z,4.77
2019-04-01T08:29:29.486Z,4.70
2019-04-01T08:31:47.808Z,4.53
2019-04-01T08:34:18.068Z,4.73
2019-04-01T08:36:48.393Z,5.10
2019-04-01T08:39:21.283Z,4.30
2019-04-01T08:41:51.804Z,4.37
2019-04-01T08:44:22.198Z,4.10
2019-04-01T08:46:52.916Z,4.37
2019-04-01T08:49:23.367Z,4.50
2019-04-01T08:51:53.879Z,3.47
2019-04-01T08:54:26.674Z,3.83
2019-04-01T08:56:58.471Z,5.07
2019-04-01T08:59:28.784Z,4.00
2019-04-01T09:01:59.124Z,3.77
2019-04-01T09:04:29.416Z,3.57
2019-04-01T09:07:00.179Z,3.33
2019-04-01T09:09:32.187Z,3.80
2019-04-01T09:12:03.274Z,3.83
2019-04-01T09:14:33.567Z,3.67
2019-04-01T09:17:03.921Z,4.23
2019-04-01T09:19:34.374Z,3.67
2019-04-01T09:22:04.665Z,3.87
2019-04-01T09:24:34.975Z,3.40
2019-04-01T09:27:05.390Z,3.00
2019-04-01T09:29:35.950Z,3.50
2019-04-01T09:32:06.248Z,3.80
2019-04-01T09:34:38.193Z,4.47
2019-04-01T09:37:08.412Z,4.27
2019-04-01T09:39:38.762Z,3.60
2019-04-01T09:42:09.141Z,4.03
2019-04-01T09:44:39.533Z,3.60
2019-04-01T09:47:10.102Z,3.67
2019-04-01T09:49:40.389Z,3.67
2019-04-01T09:52:10.795Z,3.20
2019-04-01T09:54:41.056Z,3.63
2019-04-01T09:57:17.671Z,3.37
2019-04-01T09:59:52.266Z,3.50
2019-04-01T10:02:31.775Z,3.07
2019-04-01T10:04:55.389Z,3.90
2019-04-01T10:07:26.019Z,2.80
2019-04-01T10:09:58.405Z,2.80
2019-04-01T10:12:28.728Z,3.20
2019-04-01T10:15:00.340Z,3.50
2019-04-01T10:17:30.943Z,3.20
2019-04-01T10:20:03.084Z,3.07
2019-04-01T10:22:40.928Z,3.27
2019-04-01T10:25:19.092Z,3.00
2019-04-01T10:27:58.164Z,2.87
2019-04-01T10:30:35.505Z,3.03
2019-04-01T10:33:06.888Z,2.67
2019-04-01T10:35:39.262Z,3.30
2019-04-01T10:38:12.001Z,2.87
2019-04-01T10:40:42.352Z,2.70
2019-04-01T10:43:12.930Z,2.70
2019-04-01T10:45:43.283Z,2.83
2019-04-01T10:48:14.252Z,3.10
2019-04-01T10:50:44.541Z,3.20
2019-04-01T10:53:15.201Z,3.20
2019-04-01T10:55:45.712Z,3.40
2019-04-01T10:58:16.113Z,2.67
2019-04-01T11:00:46.645Z,3.67
2019-04-01T11:03:17.035Z,3.20
2019-04-01T11:05:47.431Z,3.20
2019-04-01T11:08:20.531Z,3.20
2019-04-01T11:10:51.366Z,3.13
2019-04-01T11:13:22.235Z,2.53
2019-04-01T11:15:52.505Z,2.93
2019-04-01T11:18:28.872Z,2.47
2019-04-01T11:21:06.530Z,2.90
2019-04-01T11:23:45.212Z,2.33
2019-04-01T11:26:16.472Z,3.33
2019-04-01T11:28:46.684Z,3.67
2019-04-01T11:31:17.151Z,2.77
2019-04-01T11:33:48.378Z,3.83
2019-04-01T11:36:25.554Z,2.87
2019-04-01T11:38:57.450Z,2.70
2019-04-01T11:41:27.788Z,3.23
2019-04-01T11:43:57.974Z,3.07
2019-04-01T11:46:28.457Z,3.37
2019-04-01T11:48:59.176Z,3.00
2019-04-01T11:51:32.986Z,3.00
2019-04-01T11:54:01.512Z,3.27
2019-04-01T11:56:31.979Z,3.60
2019-04-01T11:59:02.374Z,3.73
2019-04-01T12:01:32.749Z,3.23
2019-04-01T12:04:03.097Z,3.43
2019-04-01T12:06:33.400Z,3.63
2019-04-01T12:09:06.465Z,3.50
2019-04-01T12:11:36.895Z,4.20
2019-04-01T12:14:07.238Z,3.20
2019-04-01T12:16:39.104Z,3.10
2019-04-01T12:19:10.880Z,3.83
2019-04-01T12:21:41.980Z,3.37
2019-04-01T12:24:12.486Z,3.43
2019-04-01T12:26:42.725Z,3.50
2019-04-01T12:29:15.587Z,3.50
2019-04-01T12:31:52.829Z,2.83
2019-04-01T12:34:33.746Z,2.97
2019-04-01T12:37:12.799Z,3.20
2019-04-01T12:39:50.494Z,3.17
2019-04-01T12:42:27.238Z,3.20
2019-04-01T12:45:04.747Z,3.03
2019-04-01T12:47:43.735Z,3.47
2019-04-01T12:50:23.984Z,3.20
2019-04-01T12:53:04.094Z,3.27
2019-04-01T12:55:45.079Z,3.27
2019-04-01T12:58:25.997Z,3.10
2019-04-01T13:01:09.666Z,2.90
2019-04-01T13:03:50.071Z,3.67
2019-04-01T13:06:32.062Z,3.33
2019-04-01T13:09:13.488Z,3.57
2019-04-01T13:11:51.101Z,3.67
2019-04-01T13:14:28.273Z,3.57
2019-04-01T13:16:59.310Z,4.33
2019-04-01T13:19:29.652Z,3.83
2019-04-01T13:21:59.895Z,4.33
2019-04-01T13:24:30.148Z,3.83
2019-04-01T13:27:00.682Z,3.60
2019-04-01T13:29:31.558Z,3.80
2019-04-01T13:32:01.835Z,3.50
2019-04-01T13:34:32.203Z,4.03
2019-04-01T13:37:02.530Z,3.50
2019-04-01T13:39:32.853Z,4.30
2019-04-01T13:42:11.121Z,3.73
2019-04-01T13:44:54.956Z,4.20
2019-04-01T13:47:34.843Z,4.00
2019-04-01T13:50:10.426Z,4.00
2019-04-01T13:52:40.783Z,3.63
2019-04-01T13:55:11.386Z,3.60
2019-04-01T13:57:42.005Z,3.63
2019-04-01T14:00:14.651Z,3.60
2019-04-01T14:02:45.000Z,3.60
2019-04-01T14:05:15.257Z,3.60
2019-04-01T14:07:45.447Z,3.97
2019-04-01T14:10:15.998Z,4.27
2019-04-01T14:12:46.293Z,3.70
2019-04-01T14:15:21.935Z,3.80
2019-04-01T14:18:00.643Z,4.27
2019-04-01T14:20:41.245Z,5.70
2019-04-01T14:23:19.145Z,3.93
2019-04-01T14:25:49.459Z,3.90
2019-04-01T14:28:21.564Z,4.63
2019-04-01T14:30:51.900Z,3.70
2019-04-01T14:33:22.971Z,4.03
2019-04-01T14:35:54.541Z,4.30
2019-04-01T14:38:24.838Z,4.27
2019-04-01T14:40:58.119Z,4.20
2019-04-01T14:43:31.019Z,3.97
2019-04-01T14:46:00.164Z,4.17
2019-04-01T14:48:30.980Z,4.17
2019-04-01T14:51:02.187Z,4.20
2019-04-01T14:53:32.955Z,3.67
2019-04-01T14:56:05.153Z,4.80
2019-04-01T14:58:43.708Z,3.83
2019-04-01T15:01:14.535Z,3.93
2019-04-01T15:03:44.763Z,3.90
2019-04-01T15:06:15.122Z,3.87
2019-04-01T15:08:45.578Z,3.63
2019-04-01T15:11:16.007Z,3.70
2019-04-01T15:13:46.394Z,4.10
2019-04-01T15:16:16.676Z,3.50
2019-04-01T15:18:48.065Z,3.23
2019-04-01T15:21:19.809Z,3.40
2019-04-01T15:23:53.114Z,3.47
2019-04-01T15:26:21.938Z,3.93
2019-04-01T15:28:52.181Z,3.53
2019-04-01T15:31:23.338Z,3.80
2019-04-01T15:33:53.750Z,3.20
2019-04-01T15:36:24.049Z,3.27
2019-04-01T15:38:55.255Z,3.90
2019-04-01T15:41:26.847Z,3.00
2019-04-01T15:43:57.274Z,3.37
2019-04-01T15:46:27.846Z,3.67
2019-04-01T15:48:58.174Z,3.87
2019-04-01T15:51:28.506Z,3.10
2019-04-01T15:54:01.383Z,3.27
2019-04-01T15:56:30.965Z,3.30
2019-04-01T15:59:01.301Z,3.53
2019-04-01T16:01:31.559Z,3.37
2019-04-01T16:04:02.941Z,3.67
2019-04-01T16:06:33.204Z,3.17
2019-04-01T16:09:04.484Z,3.37
2019-04-01T16:11:34.762Z,3.90
2019-04-01T16:14:05.865Z,3.23
2019-04-01T16:16:36.335Z,3.60
2019-04-01T16:19:06.845Z,3.30
2019-04-01T16:21:37.035Z,2.97
2019-04-01T16:24:10.872Z,3.00
2019-04-01T16:26:39.307Z,3.23
2019-04-01T16:29:09.630Z,3.10
2019-04-01T16:31:39.834Z,2.33
2019-04-01T16:34:10.141Z,3.23
2019-04-01T16:36:40.466Z,3.33
2019-04-01T16:39:10.730Z,2.97
2019-04-01T16:41:40.986Z,3.27
2019-04-01T16:44:11.186Z,3.53
2019-04-01T16:46:41.435Z,2.93
2019-04-01T16:49:11.960Z,3.23
2019-04-01T16:51:42.183Z,2.97
2019-04-01T16:54:12.606Z,3.17
2019-04-01T16:56:42.877Z,3.30
2019-04-01T16:59:13.073Z,3.40
2019-04-01T17:01:43.416Z,2.93
2019-04-01T17:04:13.768Z,3.90
2019-04-01T17:06:44.251Z,3.07
2019-04-01T17:09:14.582Z,3.70
2019-04-01T17:11:44.798Z,3.33
2019-04-01T17:14:15.148Z,2.70
2019-04-01T17:16:45.418Z,3.27
2019-04-01T17:19:15.605Z,2.90
2019-04-01T17:21:45.849Z,3.17
2019-04-01T17:24:16.003Z,3.53
2019-04-01T17:27:12.831Z,3.20
2019-04-01T17:29:46.249Z,3.90
2019-04-01T17:32:16.535Z,3.93
2019-04-01T17:34:46.751Z,3.07
2019-04-01T17:37:16.914Z,3.13
2019-04-01T17:39:47.115Z,4.10
2019-04-01T17:42:17.489Z,3.43
2019-04-01T17:44:47.712Z,3.67
2019-04-01T17:47:17.908Z,3.43
2019-04-01T17:49:48.106Z,3.77
2019-04-01T17:52:18.312Z,3.20
2019-04-01T17:54:48.747Z,3.73
2019-04-01T17:57:20.840Z,4.50
2019-04-01T17:59:51.066Z,4.10
2019-04-01T18:02:30.688Z,3.80
2019-04-01T18:05:00.873Z,4.10
2019-04-01T18:07:31.150Z,4.00
2019-04-01T18:10:01.426Z,3.10
2019-04-01T18:12:31.605Z,4.00
2019-04-01T18:15:02.065Z,3.90
2019-04-01T18:17:32.405Z,3.67
2019-04-01T18:20:02.572Z,4.23
2019-04-01T18:22:35.551Z,3.20
2019-04-01T18:25:06.195Z,3.57
2019-04-01T18:27:36.435Z,4.50
2019-04-01T18:30:08.371Z,4.67
2019-04-01T18:32:38.587Z,3.60
2019-04-01T18:35:09.166Z,3.87
2019-04-01T18:37:39.521Z,3.80
2019-04-01T18:40:11.279Z,3.80
2019-04-01T18:42:42.471Z,3.50
2019-04-01T18:45:13.065Z,4.00
2019-04-01T18:47:43.657Z,4.30
2019-04-01T18:50:14.438Z,3.83
2019-04-01T18:52:46.236Z,3.73
2019-04-01T18:55:17.760Z,3.50
2019-04-01T18:57:47.961Z,3.90
2019-04-01T19:00:18.786Z,4.33
2019-04-01T19:02:49.471Z,4.10
2019-04-01T19:05:19.805Z,3.80
2019-04-01T19:07:50.106Z,4.43
2019-04-01T19:10:20.388Z,4.20
2019-04-01T19:13:04.434Z,4.97
2019-04-01T19:15:23.316Z,4.07
2019-04-01T19:17:55.211Z,4.67
2019-04-01T19:20:25.489Z,6.00
2019-04-01T19:22:55.854Z,5.53
2019-04-01T19:25:26.554Z,4.97
2019-04-01T19:27:56.930Z,4.60
2019-04-01T19:30:28.598Z,5.10
2019-04-01T19:32:58.845Z,4.60
2019-04-01T19:35:29.089Z,4.77
2019-04-01T19:37:59.388Z,4.30
2019-04-01T19:40:29.742Z,4.67
2019-04-01T19:43:03.373Z,5.00
2019-04-01T19:45:32.072Z,4.60
2019-04-01T19:48:03.462Z,4.80
2019-04-01T19:50:35.236Z,4.17
2019-04-01T19:53:05.478Z,4.10
2019-04-01T19:55:36.018Z,4.53
2019-04-01T19:58:06.351Z,4.53
2019-04-01T20:00:36.536Z,4.83
2019-04-01T20:03:06.833Z,4.87
2019-04-01T20:05:37.034Z,4.30
2019-04-01T20:08:07.220Z,4.73
2019-04-01T20:10:37.477Z,4.00
2019-04-01T20:13:07.701Z,4.33
2019-04-01T20:15:37.940Z,4.03
2019-04-01T20:18:08.393Z,5.33
2019-04-01T20:20:41.376Z,4.53
2019-04-01T20:23:10.663Z,5.00
2019-04-01T20:25:41.962Z,4.63
2019-04-01T20:28:13.116Z,4.80
2019-04-01T20:30:43.859Z,4.80
2019-04-01T20:33:18.153Z,4.50
2019-04-01T20:35:46.224Z,4.43
2019-04-01T20:38:17.931Z,4.80
2019-04-01T20:40:48.167Z,5.00
2019-04-01T20:43:18.541Z,4.57
2019-04-01T20:45:48.798Z,4.10
2019-04-01T20:48:18.968Z,4.20
2019-04-01T20:50:49.599Z,4.30
2019-04-01T20:53:19.803Z,4.93
2019-04-01T20:55:50.825Z,4.13
2019-04-01T20:58:21.652Z,4.27
2019-04-01T21:00:52.030Z,4.43
2019-04-01T21:03:22.287Z,4.67
2019-04-01T21:05:53.321Z,4.63
2019-04-01T21:08:24.032Z,3.87
2019-04-01T21:10:54.254Z,4.57
2019-04-01T21:13:24.571Z,4.70
2019-04-01T21:15:54.753Z,5.33
2019-04-01T21:18:25.036Z,4.23
2019-04-01T21:20:55.226Z,4.77
2019-04-01T21:23:25.524Z,5.03
2019-04-01T21:25:55.717Z,4.57
2019-04-01T21:28:25.986Z,4.07
2019-04-01T21:30:56.198Z,5.30
2019-04-01T21:33:28.087Z,5.50
2019-04-01T21:35:58.236Z,4.47
2019-04-01T21:38:28.452Z,4.90
2019-04-01T21:40:58.653Z,5.10
2019-04-01T21:43:29.004Z,4.87
2019-04-01T21:46:00.199Z,5.00
2019-04-01T21:48:30.471Z,5.37
2019-04-01T21:51:00.684Z,4.53
2019-04-01T21:53:31.202Z,5.20
2019-04-01T21:56:01.818Z,6.07
2019-04-01T21:58:32.046Z,4.53
2019-04-01T22:01:02.241Z,5.00
2019-04-01T22:03:34.204Z,4.93
2019-04-01T22:06:04.518Z,4.77
2019-04-01T22:08:35.222Z,5.03
2019-04-01T22:11:06.357Z,4.73
2019-04-01T22:13:36.522Z,5.00
2019-04-01T22:16:06.713Z,5.23
2019-04-01T22:18:36.938Z,5.73
2019-04-01T22:21:07.209Z,5.40
2019-04-01T22:23:37.439Z,4.40
2019-04-01T22:26:07.671Z,5.40
2019-04-01T22:28:37.848Z,6.00
2019-04-01T22:31:08.026Z,4.80
2019-04-01T22:33:39.213Z,6.03
2019-04-01T22:36:11.424Z,5.93
2019-04-01T22:38:43.036Z,6.60
2019-04-01T22:41:13.240Z,5.90
2019-04-01T22:43:43.584Z,4.47
2019-04-01T22:46:13.742Z,5.30
2019-04-01T22:48:43.963Z,4.73
2019-04-01T22:51:14.143Z,5.50
2019-04-01T22:53:44.580Z,5.20
2019-04-01T22:56:15.319Z,5.60
2019-04-01T22:58:45.557Z,5.93
2019-04-01T23:01:16.147Z,5.80
2019-04-01T23:03:46.764Z,6.10
2019-04-01T23:06:16.963Z,6.03
2019-04-01T23:08:47.243Z,6.40
2019-04-01T23:11:17.485Z,5.87
2019-04-01T23:13:48.356Z,5.70
2019-04-01T23:16:18.828Z,5.63
2019-04-01T23:18:49.049Z,6.03
2019-04-01T23:21:19.268Z,5.80
2019-04-01T23:23:49.528Z,5.20
2019-04-01T23:26:19.746Z,5.40
2019-04-01T23:28:49.937Z,6.03
2019-04-01T23:31:20.197Z,5.80
2019-04-01T23:33:50.457Z,6.37
2019-04-01T23:36:20.630Z,5.67
2019-04-01T23:38:50.862Z,5.17
2019-04-01T23:41:21.035Z,5.93
2019-04-01T23:43:51.210Z,5.77
2019-04-01T23:46:21.479Z,5.83
2019-04-01T23:48:51.691Z,5.77
2019-04-01T23:51:21.888Z,6.17
2019-04-01T23:53:52.083Z,6.10
2019-04-01T23:56:22.740Z,5.50
2019-04-01T23:58:52.938Z,6.63
